Time;durP1;ratioP1;P1;durP2;ratioP2;P2;SDS_P1;SDS_P2;PMS_P1;PMS_P2;Temp;Humidity;BMP_temperature;BMP_pressure;BME280_temperature;BME280_humidity;BME280_pressure;Samples;Min_cycle;Max_cycle;Signal;HPM_P1;HPM_P2
2023/05/11 00:01:06;;;;;;;;;;;14.80;96.80;;;;;;6130047;23;19951;-95
2023/05/11 00:03:32;;;;;;;;;;;14.80;96.70;;;;;;6105582;23;19904;-95
2023/05/11 00:05:58;;;;;;;;;;;15.10;96.90;;;;;;6130615;23;19971;-95
2023/05/11 00:08:24;;;;;;;;;;;14.80;96.80;;;;;;6130642;23;19908;-96
2023/05/11 00:10:49;;;;;;;;;;;14.80;96.80;;;;;;6130351;23;19901;-96
2023/05/11 00:13:15;;;;;;;;;;;14.80;96.80;;;;;;6129722;23;19908;-95
2023/05/11 00:15:41;;;;;;;;;;;14.80;96.80;;;;;;6105858;23;19912;-96
2023/05/11 00:18:07;;;;;;;;;;;14.80;96.80;;;;;;6130365;23;19901;-96
2023/05/11 00:20:32;;;;;;;;;;;14.70;96.80;;;;;;6105748;23;19931;-96
2023/05/11 00:22:58;;;;;;;;;;;14.70;96.70;;;;;;6129703;23;19900;-95
2023/05/11 00:25:24;;;;;;;;;;;14.80;96.80;;;;;;6130700;23;19907;-94
2023/05/11 00:27:50;;;;;;;;;;;14.70;96.70;;;;;;6129876;23;19934;-96
2023/05/11 00:30:16;;;;;;;;;;;14.70;96.70;;;;;;6129841;23;19934;-96
2023/05/11 00:32:42;;;;;;;;;;;14.70;96.80;;;;;;6105599;23;19905;-95
2023/05/11 00:35:08;;;;;;;;;;;14.70;96.70;;;;;;6130315;23;19914;-96
2023/05/11 00:37:34;;;;;;;;;;;14.80;96.80;;;;;;6130364;23;19923;-96
2023/05/11 00:39:59;;;;;;;;;;;14.70;96.70;;;;;;6130229;23;20471;-95
2023/05/11 00:42:26;;;;;;;;;;;14.70;96.80;;;;;;6129725;23;19916;-96
2023/05/11 00:44:51;;;;;;;;;;;14.70;96.70;;;;;;6106095;23;19996;-95
2023/05/11 00:47:17;;;;;;;;;;;14.70;96.70;;;;;;6129157;23;19940;-96
2023/05/11 00:49:43;;;;;;;;;;;14.70;96.70;;;;;;6129826;23;20004;-95
2023/05/11 00:52:10;;;;;;;;;;;14.70;96.80;;;;;;6129425;23;19912;-96
2023/05/11 00:54:36;;;;;;;;;;;14.70;96.70;;;;;;6129960;23;19905;-96
2023/05/11 00:57:02;;;;;;;;;;;14.70;96.70;;;;;;6129464;23;19905;-96
2023/05/11 00:59:28;;;;;;;;;;;14.70;96.70;;;;;;6129687;23;19928;-96
2023/05/11 01:01:54;;;;;;;;;;;14.70;96.70;;;;;;6129155;23;19911;-96
2023/05/11 01:04:20;;;;;;;;;;;14.70;96.70;;;;;;6128973;23;19904;-96
2023/05/11 01:07:01;;;;;;;;;;;14.70;96.70;;;;;;6130004;23;19935;-96
2023/05/11 01:09:36;;;;;;;;;;;14.70;96.70;;;;;;6129780;23;19900;-96
2023/05/11 01:12:32;;;;;;;;;;;14.70;96.70;;;;;;6129515;23;19991;-96
2023/05/11 01:15:01;;;;;;;;;;;14.70;96.70;;;;;;6116892;23;19901;-95
2023/05/11 01:17:44;;;;;;;;;;;14.70;96.70;;;;;;6129467;23;19924;-96
2023/05/11 01:20:15;;;;;;;;;;;14.70;96.70;;;;;;6129957;23;19901;-96
2023/05/11 01:22:44;;;;;;;;;;;14.70;96.70;;;;;;6128985;23;19900;-96
2023/05/11 01:25:20;;;;;;;;;;;14.70;96.70;;;;;;6129510;23;19901;-96
2023/05/11 01:27:47;;;;;;;;;;;14.70;96.70;;;;;;6129583;23;20332;-96
2023/05/11 01:30:26;;;;;;;;;;;14.70;96.70;;;;;;6129113;23;19987;-96
2023/05/11 01:32:58;;;;;;;;;;;14.60;96.70;;;;;;6129603;23;19901;-96
2023/05/11 01:35:25;;;;;;;;;;;14.70;96.70;;;;;;6105174;23;19915;-96
2023/05/11 01:37:56;;;;;;;;;;;14.70;96.80;;;;;;6129812;23;20307;-96
2023/05/11 01:40:27;;;;;;;;;;;14.70;96.70;;;;;;6129442;23;19900;-96
2023/05/11 01:43:04;;;;;;;;;;;14.70;96.70;;;;;;6129131;23;20214;-96
2023/05/11 01:45:32;;;;;;;;;;;14.70;96.70;;;;;;6125463;23;19909;-96
2023/05/11 01:47:58;;;;;;;;;;;14.70;96.70;;;;;;6130471;23;19971;-96
2023/05/11 01:50:24;;;;;;;;;;;14.70;96.70;;;;;;6131881;23;19900;-96
2023/05/11 01:52:51;;;;;;;;;;;14.60;96.70;;;;;;6131682;23;19901;-96
2023/05/11 01:55:20;;;;;;;;;;;14.70;96.70;;;;;;6106899;23;19912;-96
2023/05/11 01:57:48;;;;;;;;;;;14.60;96.70;;;;;;6107894;23;19908;-96
2023/05/11 02:00:15;;;;;;;;;;;14.70;96.80;;;;;;6106593;23;19928;-96
2023/05/11 02:02:42;;;;;;;;;;;14.70;96.70;;;;;;6131275;23;19908;-96
2023/05/11 02:05:08;;;;;;;;;;;14.70;96.70;;;;;;6107509;23;19936;-96
2023/05/11 02:07:54;;;;;;;;;;;14.60;96.70;;;;;;6131666;23;19916;-96
2023/05/11 02:10:40;;;;;;;;;;;14.70;96.80;;;;;;6131492;23;19920;-96
2023/05/11 02:13:22;;;;;;;;;;;14.60;96.70;;;;;;6133578;23;19916;-96
2023/05/11 02:15:52;;;;;;;;;;;14.60;96.70;;;;;;6107252;23;19904;-96
2023/05/11 02:18:18;;;;;;;;;;;14.70;96.80;;;;;;6107837;23;19904;-96
2023/05/11 02:21:04;;;;;;;;;;;14.60;96.70;;;;;;6131795;23;19901;-96
2023/05/11 02:23:50;;;;;;;;;;;14.60;96.70;;;;;;6130687;23;19908;-96
2023/05/11 02:26:19;;;;;;;;;;;14.60;96.70;;;;;;6157669;23;19904;-96
2023/05/11 02:28:53;;;;;;;;;;;14.60;96.70;;;;;;6108099;23;19905;-96
2023/05/11 02:31:22;;;;;;;;;;;14.60;96.70;;;;;;6105787;23;19904;-96
2023/05/11 02:34:08;;;;;;;;;;;14.60;96.70;;;;;;6131733;23;19901;-96
2023/05/11 02:36:37;;;;;;;;;;;14.60;96.80;;;;;;6156993;23;20384;-96
2023/05/11 02:39:25;;;;;;;;;;;14.60;96.80;;;;;;6157416;23;20318;-96
2023/05/11 02:41:56;;;;;;;;;;;14.60;96.80;;;;;;6130996;23;19908;-96
2023/05/11 02:44:26;;;;;;;;;;;14.60;96.80;;;;;;6131418;23;19904;-96
2023/05/11 02:46:54;;;;;;;;;;;14.60;96.70;;;;;;6156712;23;19904;-96
2023/05/11 02:49:40;;;;;;;;;;;14.60;96.80;;;;;;6106450;23;19939;-96
2023/05/11 02:52:23;;;;;;;;;;;14.60;96.80;;;;;;6156315;23;19911;-96
2023/05/11 02:54:50;;;;;;;;;;;14.60;96.70;;;;;;6130516;23;20362;-96
2023/05/11 02:57:17;;;;;;;;;;;14.60;96.70;;;;;;6131149;23;19904;-96
2023/05/11 02:59:45;;;;;;;;;;;14.60;96.80;;;;;;6106796;23;19908;-95
2023/05/11 03:02:13;;;;;;;;;;;14.60;96.80;;;;;;6106140;23;19905;-95
2023/05/11 03:04:39;;;;;;;;;;;14.60;96.80;;;;;;6106462;23;19912;-95
2023/05/11 03:07:06;;;;;;;;;;;14.60;96.80;;;;;;6131282;23;20118;-95
2023/05/11 03:09:33;;;;;;;;;;;14.60;96.80;;;;;;6130477;23;19904;-94
2023/05/11 03:11:59;;;;;;;;;;;14.60;96.80;;;;;;6105674;23;19904;-95
2023/05/11 03:14:26;;;;;;;;;;;14.60;96.80;;;;;;6130272;23;19907;-96
2023/05/11 03:16:52;;;;;;;;;;;14.60;96.80;;;;;;6106072;23;19908;-96
2023/05/11 03:19:18;;;;;;;;;;;14.60;96.80;;;;;;6130807;23;19905;-95
2023/05/11 03:21:44;;;;;;;;;;;14.60;96.80;;;;;;6130372;23;19975;-93
2023/05/11 03:24:11;;;;;;;;;;;14.60;96.80;;;;;;6130313;23;19905;-94
2023/05/11 03:26:37;;;;;;;;;;;14.60;96.80;;;;;;6130136;23;19904;-95
2023/05/11 03:29:03;;;;;;;;;;;14.60;96.80;;;;;;6131137;23;19900;-94
2023/05/11 03:31:28;;;;;;;;;;;14.60;96.80;;;;;;6130654;23;20295;-94
2023/05/11 03:33:54;;;;;;;;;;;14.60;96.80;;;;;;6129850;23;19900;-94
2023/05/11 03:36:20;;;;;;;;;;;14.60;96.80;;;;;;6130528;23;19900;-94
2023/05/11 03:38:47;;;;;;;;;;;15.10;96.90;;;;;;6130761;23;19904;-94
2023/05/11 03:41:16;;;;;;;;;;;14.60;96.80;;;;;;6130821;23;19979;-94
2023/05/11 03:43:43;;;;;;;;;;;14.60;96.80;;;;;;6129768;23;20214;-93
2023/05/11 03:46:12;;;;;;;;;;;14.50;96.80;;;;;;6130353;23;19951;-94
2023/05/11 03:48:39;;;;;;;;;;;14.60;96.80;;;;;;6129991;23;19900;-94
2023/05/11 03:51:05;;;;;;;;;;;14.60;96.80;;;;;;6130425;23;19900;-93
2023/05/11 03:53:31;;;;;;;;;;;14.60;96.80;;;;;;6130015;23;19963;-93
2023/05/11 03:55:57;;;;;;;;;;;14.50;97.10;;;;;;6130113;23;20322;-93
2023/05/11 03:58:22;;;;;;;;;;;14.60;96.80;;;;;;6130739;23;19900;-93
2023/05/11 04:00:48;;;;;;;;;;;14.60;96.80;;;;;;6130242;23;19901;-93
2023/05/11 04:03:14;;;;;;;;;;;14.50;96.80;;;;;;6129920;23;19952;-94
2023/05/11 04:05:40;;;;;;;;;;;14.50;96.80;;;;;;6129285;23;19901;-93
2023/05/11 04:08:05;;;;;;;;;;;14.60;96.80;;;;;;6130078;23;19971;-94
2023/05/11 04:10:31;;;;;;;;;;;14.50;96.80;;;;;;6130662;23;19901;-93
2023/05/11 04:12:57;;;;;;;;;;;14.50;96.80;;;;;;6129552;23;20035;-94
2023/05/11 04:15:22;;;;;;;;;;;14.50;96.80;;;;;;6130451;23;19901;-93
2023/05/11 04:17:48;;;;;;;;;;;14.50;96.80;;;;;;6130075;23;19901;-94
2023/05/11 04:20:14;;;;;;;;;;;14.50;96.80;;;;;;6130565;23;20330;-93
2023/05/11 04:22:39;;;;;;;;;;;14.50;96.80;;;;;;6130128;23;20333;-94
2023/05/11 04:25:05;;;;;;;;;;;14.50;96.80;;;;;;6129833;23;19943;-94
2023/05/11 04:27:31;;;;;;;;;;;14.50;96.80;;;;;;6128845;23;19911;-94
2023/05/11 04:29:57;;;;;;;;;;;14.50;96.80;;;;;;6129521;23;19958;-94
2023/05/11 04:32:23;;;;;;;;;;;14.50;96.80;;;;;;6130469;23;19994;-94
2023/05/11 04:34:48;;;;;;;;;;;14.50;96.80;;;;;;6129228;23;20373;-94
2023/05/11 04:37:14;;;;;;;;;;;14.50;96.80;;;;;;6129384;23;19908;-94
2023/05/11 04:39:39;;;;;;;;;;;14.50;96.80;;;;;;6129097;23;20372;-94
2023/05/11 04:42:05;;;;;;;;;;;14.50;96.80;;;;;;6129328;23;19911;-95
2023/05/11 04:44:31;;;;;;;;;;;14.50;96.80;;;;;;6129780;23;19951;-95
2023/05/11 04:46:57;;;;;;;;;;;14.50;96.80;;;;;;6128791;23;19995;-95
2023/05/11 04:49:23;;;;;;;;;;;14.50;96.80;;;;;;6129399;23;19900;-94
2023/05/11 04:51:49;;;;;;;;;;;14.50;96.80;;;;;;6129945;23;19900;-95
2023/05/11 04:54:15;;;;;;;;;;;14.50;96.80;;;;;;6105316;23;19904;-96
2023/05/11 04:56:42;;;;;;;;;;;14.50;96.80;;;;;;6137207;23;19908;-96
2023/05/11 04:59:09;;;;;;;;;;;14.50;96.80;;;;;;6105096;23;19905;-95
2023/05/11 05:01:35;;;;;;;;;;;14.60;96.80;;;;;;6108605;23;19905;-95
2023/05/11 05:04:17;;;;;;;;;;;14.50;96.80;;;;;;6129306;23;19999;-96
2023/05/11 05:07:03;;;;;;;;;;;14.50;96.80;;;;;;6156543;23;19904;-96
2023/05/11 05:09:29;;;;;;;;;;;14.50;96.90;;;;;;6157170;23;19905;-96
2023/05/11 05:12:15;;;;;;;;;;;14.50;96.90;;;;;;6106960;23;19904;-96
2023/05/11 05:14:41;;;;;;;;;;;14.50;96.80;;;;;;6131418;23;20270;-93
2023/05/11 05:17:07;;;;;;;;;;;14.50;97.10;;;;;;6130631;23;19901;-91
2023/05/11 05:19:32;;;;;;;;;;;14.50;96.80;;;;;;6130342;23;19901;-95
2023/05/11 05:22:00;;;;;;;;;;;14.50;96.70;;;;;;6130910;23;19904;-96
2023/05/11 05:24:29;;;;;;;;;;;14.50;96.80;;;;;;6111068;23;19909;-96
2023/05/11 05:27:16;;;;;;;;;;;14.50;96.70;;;;;;6161692;23;19908;-96
2023/05/11 05:29:44;;;;;;;;;;;14.50;96.70;;;;;;6134043;23;20222;-96
2023/05/11 05:32:33;;;;;;;;;;;14.50;96.70;;;;;;6162904;23;19900;-96
2023/05/11 05:35:47;;;;;;;;;;;14.50;96.70;;;;;;6165102;23;19975;-96
2023/05/11 05:38:43;;;;;;;;;;;14.50;96.70;;;;;;6169932;23;19924;-96
2023/05/11 05:41:43;;;;;;;;;;;;;;;;;;;;;
2023/05/11 05:44:29;;;;;;;;;;;14.50;96.70;;;;;;6169871;23;19973;-96
2023/05/11 05:47:24;;;;;;;;;;;14.50;96.70;;;;;;6169854;23;19928;-96
2023/05/11 05:50:21;;;;;;;;;;;14.50;96.70;;;;;;6149002;23;19904;-96
2023/05/11 05:53:32;;;;;;;;;;;14.50;96.70;;;;;;6177553;23;19904;-96
2023/05/11 05:56:17;;;;;;;;;;;14.50;96.70;;;;;;6172702;23;20322;-92
2023/05/11 05:58:42;;;;;;;;;;;14.50;96.70;;;;;;6131530;23;19915;-91
2023/05/11 06:01:08;;;;;;;;;;;14.50;96.70;;;;;;6131272;23;19932;-95
2023/05/11 06:13:55;;;;;;;;;;;14.50;96.60;;;;;;6156164;23;19921;-90
2023/05/11 06:16:26;;;;;;;;;;;14.50;96.60;;;;;;6129701;23;19946;-93
2023/05/11 06:18:52;;;;;;;;;;;14.50;96.70;;;;;;6105801;23;19920;-92
2023/05/11 06:50:07;;;;;;;;;;;14.50;96.50;;;;;;6161025;23;19923;-96
2023/05/11 06:52:40;;;;;;;;;;;14.70;96.90;;;;;;6163255;23;19975;-96
2023/05/11 06:55:08;;;;;;;;;;;14.50;96.50;;;;;;6131209;23;20391;-96
2023/05/11 06:57:35;;;;;;;;;;;14.50;96.50;;;;;;6107588;23;19904;-96
2023/05/11 07:00:01;;;;;;;;;;;14.50;96.50;;;;;;6132546;23;19901;-96
2023/05/11 07:02:27;;;;;;;;;;;14.50;96.50;;;;;;6136086;23;19972;-96
2023/05/11 07:05:13;;;;;;;;;;;14.50;96.50;;;;;;6134773;23;20219;-96
2023/05/11 07:08:19;;;;;;;;;;;14.60;96.50;;;;;;6161868;23;19944;-96
2023/05/11 07:10:53;;;;;;;;;;;14.50;96.50;;;;;;6019348;23;19939;-96
2023/05/11 07:13:19;;;;;;;;;;;14.60;96.50;;;;;;5986712;23;19906;-96
2023/05/11 07:15:45;;;;;;;;;;;14.60;96.60;;;;;;6012600;23;19909;-96
2023/05/11 07:18:11;;;;;;;;;;;14.60;96.70;;;;;;6011970;23;19912;-96
2023/05/11 07:20:39;;;;;;;;;;;14.60;96.70;;;;;;5989278;23;19996;-96
2023/05/11 07:23:16;;;;;;;;;;;14.60;96.60;;;;;;5992266;23;20312;-96
2023/05/11 07:25:42;;;;;;;;;;;14.60;96.60;;;;;;5994073;23;19957;-96
2023/05/11 07:28:08;;;;;;;;;;;14.60;96.50;;;;;;6015561;23;19944;-96
2023/05/11 07:30:34;;;;;;;;;;;14.60;96.60;;;;;;6011503;23;20000;-96
2023/05/11 07:33:01;;;;;;;;;;;14.70;96.60;;;;;;5988644;23;19966;-96
2023/05/11 07:35:27;;;;;;;;;;;14.70;96.60;;;;;;5988249;23;19906;-96
2023/05/11 07:37:53;;;;;;;;;;;14.70;96.60;;;;;;6008537;23;19902;-96
2023/05/11 07:40:32;;;;;;;;;;;14.70;96.50;;;;;;5989687;23;19985;-96
2023/05/11 07:42:58;;;;;;;;;;;14.70;96.60;;;;;;6043382;23;19902;-95
2023/05/11 07:45:44;;;;;;;;;;;14.70;96.70;;;;;;6042642;23;20235;-96
2023/05/11 07:48:10;;;;;;;;;;;14.70;96.60;;;;;;6090965;23;19979;-96
2023/05/11 07:50:35;;;;;;;;;;;14.70;96.60;;;;;;6106744;23;19928;-96
2023/05/11 07:53:01;;;;;;;;;;;14.70;96.60;;;;;;6130750;23;19908;-96
2023/05/11 07:55:29;;;;;;;;;;;14.80;96.60;;;;;;6130838;23;19900;-96
2023/05/11 07:57:55;;;;;;;;;;;14.70;96.50;;;;;;6130351;23;19901;-96
2023/05/11 08:00:20;;;;;;;;;;;14.70;96.50;;;;;;6130480;23;20356;-96
2023/05/11 08:02:46;;;;;;;;;;;14.80;96.50;;;;;;6129299;23;19948;-94
2023/05/11 08:05:12;;;;;;;;;;;14.80;96.50;;;;;;6130170;23;20506;-96
2023/05/11 08:07:38;;;;;;;;;;;14.80;96.50;;;;;;6130511;23;19905;-96
2023/05/11 08:10:04;;;;;;;;;;;14.80;96.50;;;;;;6156133;23;19900;-96
2023/05/11 08:12:30;;;;;;;;;;;14.80;96.50;;;;;;6129516;23;19927;-96
2023/05/11 08:14:56;;;;;;;;;;;14.80;96.50;;;;;;6130150;23;19923;-95
2023/05/11 08:17:22;;;;;;;;;;;14.80;96.50;;;;;;6130901;23;19900;-95
2023/05/11 08:19:48;;;;;;;;;;;14.80;96.50;;;;;;6129446;23;19991;-95
2023/05/11 08:22:13;;;;;;;;;;;14.80;96.50;;;;;;6130054;23;20226;-96
2023/05/11 08:24:39;;;;;;;;;;;14.80;96.50;;;;;;6129675;23;19901;-95
2023/05/11 08:27:07;;;;;;;;;;;14.80;96.50;;;;;;6130165;23;19979;-95
2023/05/11 08:29:33;;;;;;;;;;;14.90;96.60;;;;;;6130179;23;19983;-96
2023/05/11 08:31:58;;;;;;;;;;;14.90;96.60;;;;;;6130122;23;19901;-95
2023/05/11 08:34:24;;;;;;;;;;;14.90;96.60;;;;;;6129622;23;19983;-95
2023/05/11 08:36:50;;;;;;;;;;;14.90;96.60;;;;;;6130425;23;19970;-96
2023/05/11 08:39:16;;;;;;;;;;;14.90;96.70;;;;;;6129202;23;20299;-95
2023/05/11 08:41:42;;;;;;;;;;;14.90;96.60;;;;;;6129938;23;19901;-95
2023/05/11 08:44:08;;;;;;;;;;;14.90;96.70;;;;;;6129730;23;20146;-96
2023/05/11 08:46:38;;;;;;;;;;;14.90;96.60;;;;;;6105478;23;20333;-95
2023/05/11 08:49:06;;;;;;;;;;;14.90;96.70;;;;;;6129972;23;19909;-95
2023/05/11 08:51:32;;;;;;;;;;;14.90;96.70;;;;;;6106486;23;19944;-96
2023/05/11 08:53:59;;;;;;;;;;;14.90;96.70;;;;;;6131084;23;19983;-95
2023/05/11 08:56:26;;;;;;;;;;;14.90;96.70;;;;;;6131606;23;19905;-96
2023/05/11 08:58:54;;;;;;;;;;;14.90;96.70;;;;;;6131103;23;19907;-96
2023/05/11 09:01:22;;;;;;;;;;;15.20;96.70;;;;;;6131366;23;19901;-96
2023/05/11 09:03:48;;;;;;;;;;;14.90;96.60;;;;;;6130318;23;19901;-95
2023/05/11 09:06:16;;;;;;;;;;;14.90;96.60;;;;;;6130298;23;19959;-95
2023/05/11 09:08:43;;;;;;;;;;;15.00;96.60;;;;;;6106744;23;20314;-96
2023/05/11 09:11:09;;;;;;;;;;;15.00;96.60;;;;;;6130361;23;20438;-95
2023/05/11 09:13:35;;;;;;;;;;;15.00;96.50;;;;;;6129582;23;19939;-95
2023/05/11 09:16:01;;;;;;;;;;;15.00;96.50;;;;;;6129744;23;20035;-95
2023/05/11 09:18:27;;;;;;;;;;;15.00;96.50;;;;;;6130361;23;19956;-95
2023/05/11 09:20:52;;;;;;;;;;;15.00;96.50;;;;;;6105834;23;19908;-96
2023/05/11 09:23:23;;;;;;;;;;;15.00;96.40;;;;;;6129722;23;19907;-96
2023/05/11 09:26:00;;;;;;;;;;;15.00;96.40;;;;;;6130069;23;19907;-96
2023/05/11 09:28:26;;;;;;;;;;;15.00;96.40;;;;;;6133383;23;19912;-96
2023/05/11 09:31:11;;;;;;;;;;;15.00;96.40;;;;;;6129946;23;19901;-96
2023/05/11 09:33:38;;;;;;;;;;;15.10;96.40;;;;;;6155915;23;19952;-96
2023/05/11 09:36:04;;;;;;;;;;;15.00;96.40;;;;;;6105399;23;19909;-96
2023/05/11 09:38:31;;;;;;;;;;;15.10;96.40;;;;;;6130091;23;19932;-96
2023/05/11 09:40:56;;;;;;;;;;;15.10;96.40;;;;;;6129889;23;19928;-96
2023/05/11 09:43:27;;;;;;;;;;;15.10;96.40;;;;;;6156352;23;19901;-96
2023/05/11 09:45:54;;;;;;;;;;;15.10;96.30;;;;;;6129585;23;19952;-96
2023/05/11 09:48:22;;;;;;;;;;;15.10;96.30;;;;;;6132212;23;19915;-96
2023/05/11 09:51:06;;;;;;;;;;;15.10;96.30;;;;;;6133454;23;19901;-96
2023/05/11 09:53:41;;;;;;;;;;;15.10;96.30;;;;;;6135665;23;19901;-96
2023/05/11 09:56:07;;;;;;;;;;;15.00;96.30;;;;;;6135035;23;19904;-96
2023/05/11 09:59:12;;;;;;;;;;;;;;;;;;;;;
2023/05/11 10:01:42;;;;;;;;;;;15.10;96.30;;;;;;6169857;23;19928;-96
2023/05/11 10:10:20;;;;;;;;;;;;;;;;;;;;;
2023/05/11 10:12:57;;;;;;;;;;;15.10;96.20;;;;;;6184323;23;19986;-96
2023/05/11 10:15:44;;;;;;;;;;;15.10;96.20;;;;;;6163047;23;19904;-96
2023/05/11 10:18:10;;;;;;;;;;;15.20;96.20;;;;;;6163391;23;19911;-96
2023/05/11 10:20:41;;;;;;;;;;;15.20;96.20;;;;;;6137327;23;19904;-96
2023/05/11 10:23:09;;;;;;;;;;;15.20;96.20;;;;;;6140919;23;19905;-96
2023/05/11 10:25:44;;;;;;;;;;;15.20;96.20;;;;;;6163170;23;19931;-95
2023/05/11 10:28:25;;;;;;;;;;;15.20;96.20;;;;;;6163623;23;19911;-96
2023/05/11 10:31:17;;;;;;;;;;;15.40;96.30;;;;;;6188536;23;19932;-96
2023/05/11 10:34:07;;;;;;;;;;;15.20;96.20;;;;;;6166931;23;20275;-96
2023/05/11 10:36:33;;;;;;;;;;;15.20;96.20;;;;;;6163173;23;19900;-96
2023/05/11 10:42:11;;;;;;;;;;;15.20;96.20;;;;;;6165967;23;19971;-96
2023/05/11 10:48:21;;;;;;;;;;;15.20;96.20;;;;;;6191220;23;20381;-96
2023/05/11 10:51:26;;;;;;;;;;;15.20;96.20;;;;;;6192699;23;19963;-96
2023/05/11 10:53:58;;;;;;;;;;;15.20;96.20;;;;;;6169275;23;19947;-95
2023/05/11 10:56:32;;;;;;;;;;;15.20;96.20;;;;;;6167125;23;19900;-96
2023/05/11 10:59:29;;;;;;;;;;;15.20;96.20;;;;;;6171870;23;20222;-96
2023/05/11 11:01:57;;;;;;;;;;;15.20;96.20;;;;;;6193163;23;19900;-96
2023/05/11 11:05:09;;;;;;;;;;;15.10;96.20;;;;;;6166777;23;19904;-96
2023/05/11 11:07:57;;;;;;;;;;;15.20;96.20;;;;;;6049865;23;20320;-96
2023/05/11 11:10:50;;;;;;;;;;;15.20;96.20;;;;;;6074863;23;19909;-96
2023/05/11 11:13:19;;;;;;;;;;;15.20;96.20;;;;;;6055136;23;19937;-96
2023/05/11 11:25:30;;;;;;;;;;;;;;;;;;;;;
2023/05/11 11:42:50;;;;;;;;;;;;;;;;;;;;;
2023/05/11 11:57:37;;;;;;;;;;;15.10;96.10;;;;;;6181973;23;19948;-96
2023/05/11 12:07:00;;;;;;;;;;;15.10;96.10;;;;;;6058775;23;19925;-96
2023/05/11 12:10:10;;;;;;;;;;;15.10;96.40;;;;;;6003810;24;19907;-96
2023/05/11 12:13:05;;;;;;;;;;;15.40;96.20;;;;;;5998884;24;19902;-96
2023/05/11 12:19:35;;;;;;;;;;;15.10;96.00;;;;;;6005204;24;19898;-96
2023/05/11 12:22:58;;;;;;;;;;;;;;;;;;;;;
2023/05/11 12:28:48;;;;;;;;;;;15.10;96.10;;;;;;5894542;24;19946;-96
2023/05/11 12:37:56;;;;;;;;;;;15.10;96.10;;;;;;5834080;24;19950;-96
2023/05/11 12:41:17;;;;;;;;;;;15.10;96.10;;;;;;5812629;24;19896;-96
2023/05/11 12:44:50;;;;;;;;;;;;;;;;;;;;;
2023/05/11 12:50:59;;;;;;;;;;;15.10;96.10;;;;;;5737582;25;19906;-96
2023/05/11 12:57:11;;;;;;;;;;;15.10;96.00;;;;;;5734511;25;19892;-96
2023/05/11 13:00:07;;;;;;;;;;;15.10;96.00;;;;;;5733855;25;19906;-96
2023/05/11 13:02:36;;;;;;;;;;;15.10;96.00;;;;;;5723755;25;19985;-96
2023/05/11 13:05:44;;;;;;;;;;;15.10;96.00;;;;;;5743129;25;19910;-96
2023/05/11 13:08:35;;;;;;;;;;;15.10;96.00;;;;;;5728686;25;19914;-96
2023/05/11 13:11:43;;;;;;;;;;;15.10;96.00;;;;;;5738374;25;19925;-96
2023/05/11 13:14:18;;;;;;;;;;;15.10;96.00;;;;;;5745643;25;19912;-96
2023/05/11 13:17:16;;;;;;;;;;;15.10;96.00;;;;;;5758227;24;19905;-96
2023/05/11 13:19:45;;;;;;;;;;;15.10;96.00;;;;;;5823946;24;19942;-96
2023/05/11 13:22:17;;;;;;;;;;;15.10;96.00;;;;;;5824445;24;19915;-96
2023/05/11 13:24:43;;;;;;;;;;;15.10;96.00;;;;;;5843499;24;19904;-94
2023/05/11 13:27:08;;;;;;;;;;;15.10;96.00;;;;;;5945648;23;19910;-95
2023/05/11 13:29:34;;;;;;;;;;;15.10;96.00;;;;;;5987283;23;20268;-96
2023/05/11 13:32:00;;;;;;;;;;;15.10;96.00;;;;;;5989486;23;19918;-96
2023/05/11 13:34:29;;;;;;;;;;;15.10;96.00;;;;;;6060616;23;19982;-96
2023/05/11 13:36:58;;;;;;;;;;;15.10;96.00;;;;;;6131641;23;20226;-96
2023/05/11 13:39:40;;;;;;;;;;;15.10;96.00;;;;;;6137076;23;19900;-93
2023/05/11 13:42:06;;;;;;;;;;;15.10;96.00;;;;;;6133445;23;19954;-95
2023/05/11 13:44:32;;;;;;;;;;;15.10;96.00;;;;;;6132078;23;19904;-96
2023/05/11 13:46:58;;;;;;;;;;;15.10;96.00;;;;;;6136470;23;19904;-96
2023/05/11 13:49:26;;;;;;;;;;;15.10;96.00;;;;;;6140277;23;19931;-95
2023/05/11 13:51:54;;;;;;;;;;;15.10;96.00;;;;;;6140449;23;20306;-95
2023/05/11 13:54:23;;;;;;;;;;;15.10;96.00;;;;;;6136514;23;19908;-96
2023/05/11 13:56:49;;;;;;;;;;;15.10;96.00;;;;;;6135260;23;19900;-96
2023/05/11 13:59:15;;;;;;;;;;;15.10;96.00;;;;;;6134810;23;19901;-96
2023/05/11 14:01:42;;;;;;;;;;;15.10;96.00;;;;;;6161885;23;19907;-96
2023/05/11 14:04:09;;;;;;;;;;;15.10;96.00;;;;;;6111195;23;19905;-96
2023/05/11 14:07:00;;;;;;;;;;;15.00;96.00;;;;;;6139472;23;20560;-96
2023/05/11 14:09:50;;;;;;;;;;;15.10;96.00;;;;;;6141703;23;19919;-96
2023/05/11 14:12:35;;;;;;;;;;;15.40;96.10;;;;;;6131686;23;19901;-96
2023/05/11 14:15:01;;;;;;;;;;;15.00;96.00;;;;;;6107974;23;19987;-96
2023/05/11 14:17:47;;;;;;;;;;;15.00;96.00;;;;;;6106977;23;19905;-96
2023/05/11 14:20:15;;;;;;;;;;;15.00;96.00;;;;;;6128160;23;19907;-96
2023/05/11 14:26:03;;;;;;;;;;;15.00;96.10;;;;;;5954720;24;19914;-96
2023/05/11 14:28:29;;;;;;;;;;;15.00;96.10;;;;;;5932219;24;19906;-95
2023/05/11 14:31:15;;;;;;;;;;;15.00;96.10;;;;;;5954288;24;19948;-95
2023/05/11 14:33:40;;;;;;;;;;;15.00;96.10;;;;;;5908276;24;19946;-96
2023/05/11 14:36:29;;;;;;;;;;;15.00;96.10;;;;;;5931437;24;19960;-95
2023/05/11 14:38:55;;;;;;;;;;;15.00;96.10;;;;;;5931300;24;20329;-95
2023/05/11 14:41:40;;;;;;;;;;;15.00;96.10;;;;;;5934199;24;19983;-94
2023/05/11 14:44:07;;;;;;;;;;;15.00;96.10;;;;;;5930091;24;19934;-93
2023/05/11 14:46:33;;;;;;;;;;;15.00;96.10;;;;;;5931048;24;19907;-93
2023/05/11 14:48:59;;;;;;;;;;;15.00;96.10;;;;;;5930473;24;20283;-94
2023/05/11 14:51:25;;;;;;;;;;;15.00;96.10;;;;;;5930265;24;20043;-93
2023/05/11 14:53:51;;;;;;;;;;;15.00;96.20;;;;;;5930452;24;19903;-94
2023/05/11 14:56:16;;;;;;;;;;;15.00;96.20;;;;;;5930725;24;19910;-94
2023/05/11 14:58:42;;;;;;;;;;;15.00;96.20;;;;;;5930663;24;19934;-94
2023/05/11 15:01:08;;;;;;;;;;;15.00;96.20;;;;;;5930976;24;19991;-94
2023/05/11 15:03:36;;;;;;;;;;;15.00;96.50;;;;;;6109657;23;20310;-95
2023/05/11 15:06:02;;;;;;;;;;;15.00;96.20;;;;;;6131240;23;19901;-95
2023/05/11 15:08:28;;;;;;;;;;;15.00;96.30;;;;;;6131061;23;20299;-94
2023/05/11 15:10:54;;;;;;;;;;;15.00;96.30;;;;;;6130408;23;19900;-95
2023/05/11 15:13:20;;;;;;;;;;;15.00;96.30;;;;;;6130525;23;19939;-94
2023/05/11 15:15:46;;;;;;;;;;;15.00;96.30;;;;;;6130692;23;19904;-95
2023/05/11 15:18:13;;;;;;;;;;;15.00;96.30;;;;;;6130899;23;19959;-94
2023/05/11 15:20:39;;;;;;;;;;;14.90;96.30;;;;;;6131338;23;19908;-94
2023/05/11 15:23:05;;;;;;;;;;;14.90;96.30;;;;;;6130632;23;19900;-94
2023/05/11 15:25:31;;;;;;;;;;;15.00;96.30;;;;;;6130786;23;20301;-94
2023/05/11 15:27:56;;;;;;;;;;;15.00;96.30;;;;;;6130454;23;19911;-94
2023/05/11 15:30:22;;;;;;;;;;;14.90;96.30;;;;;;6130319;23;19928;-94
2023/05/11 15:32:48;;;;;;;;;;;14.90;96.30;;;;;;6130268;23;20339;-95
2023/05/11 15:35:15;;;;;;;;;;;14.90;96.30;;;;;;6130264;23;19907;-94
2023/05/11 15:37:40;;;;;;;;;;;14.90;96.30;;;;;;6131150;23;20278;-94
2023/05/11 15:40:07;;;;;;;;;;;14.90;96.30;;;;;;6129983;23;19901;-95
2023/05/11 15:42:33;;;;;;;;;;;14.90;96.30;;;;;;6129910;23;19947;-94
2023/05/11 15:44:58;;;;;;;;;;;14.90;96.30;;;;;;6130380;23;19909;-94
2023/05/11 15:47:27;;;;;;;;;;;14.90;96.30;;;;;;6130427;23;19995;-95
2023/05/11 15:49:53;;;;;;;;;;;14.90;96.30;;;;;;6130093;23;19900;-93
2023/05/11 15:52:18;;;;;;;;;;;14.90;96.40;;;;;;6130067;23;19920;-94
2023/05/11 15:54:44;;;;;;;;;;;14.90;96.40;;;;;;6130075;23;20270;-95
2023/05/11 15:57:10;;;;;;;;;;;14.90;96.40;;;;;;6129398;23;19908;-94
2023/05/11 15:59:36;;;;;;;;;;;14.90;96.40;;;;;;6130531;23;19955;-94
2023/05/11 16:02:05;;;;;;;;;;;14.90;96.40;;;;;;6129928;23;20311;-94
2023/05/11 16:04:34;;;;;;;;;;;14.90;96.40;;;;;;6130028;23;19905;-94
2023/05/11 16:06:59;;;;;;;;;;;14.90;96.40;;;;;;6130051;23;19911;-95
2023/05/11 16:09:25;;;;;;;;;;;14.90;96.40;;;;;;6130172;23;19912;-94
2023/05/11 16:11:55;;;;;;;;;;;14.90;96.40;;;;;;6130158;23;19907;-95
2023/05/11 16:14:21;;;;;;;;;;;14.90;96.50;;;;;;6129608;23;19904;-95
2023/05/11 16:16:46;;;;;;;;;;;14.90;96.50;;;;;;6130601;23;19951;-94
2023/05/11 16:19:12;;;;;;;;;;;14.80;96.40;;;;;;6130510;23;19900;-93
2023/05/11 16:21:37;;;;;;;;;;;14.80;96.50;;;;;;6129971;23;19901;-94
2023/05/11 16:24:03;;;;;;;;;;;14.80;96.50;;;;;;6129705;23;19900;-94
2023/05/11 16:26:29;;;;;;;;;;;14.80;96.50;;;;;;6130143;23;19911;-94
2023/05/11 16:28:55;;;;;;;;;;;14.80;96.50;;;;;;6130379;23;19900;-93
2023/05/11 16:31:21;;;;;;;;;;;14.80;96.50;;;;;;6129970;23;19924;-94
2023/05/11 16:33:47;;;;;;;;;;;14.80;96.50;;;;;;6130163;23;19955;-94
2023/05/11 16:36:13;;;;;;;;;;;14.80;96.50;;;;;;6156035;23;19900;-93
2023/05/11 16:38:40;;;;;;;;;;;14.80;96.50;;;;;;6130219;23;19907;-94
2023/05/11 16:41:05;;;;;;;;;;;14.80;96.50;;;;;;6130827;23;19904;-95
2023/05/11 16:43:31;;;;;;;;;;;14.80;96.50;;;;;;6129348;23;19901;-94
2023/05/11 16:45:57;;;;;;;;;;;14.80;96.50;;;;;;6129933;23;20230;-93
2023/05/11 16:48:25;;;;;;;;;;;14.80;96.50;;;;;;6130095;23;19914;-93